sensor_id;sensor_type;location;lat;lon;timestamp;pressure;altitude;pressure_sealevel;temperature;humidity
36598;BME280;22607;49.550;11.940;2023-01-26T00:01:11;97363.09;;;-0.27;100.00
36598;BME280;22607;49.550;11.940;2023-01-26T00:03:38;97353.44;;;-0.08;100.00
36598;BME280;22607;49.550;11.940;2023-01-26T00:06:11;97348.63;;;-0.15;100.00
36598;BME280;22607;49.550;11.940;2023-01-26T00:08:41;97356.28;;;-0.13;100.00
36598;BME280;22607;49.550;11.940;2023-01-26T00:11:08;97352.69;;;-0.10;100.00
36598;BME280;22607;49.550;11.940;2023-01-26T00:13:35;97348.28;;;-0.08;100.00
36598;BME280;22607;49.550;11.940;2023-01-26T00:16:04;97348.72;;;-0.31;100.00
36598;BME280;22607;49.550;11.940;2023-01-26T00:18:33;97342.72;;;-0.17;100.00
36598;BME280;22607;49.550;11.940;2023-01-26T00:21:00;97340.50;;;0.06;100.00
36598;BME280;22607;49.550;11.940;2023-01-26T00:23:27;97344.13;;;-0.11;100.00
36598;BME280;22607;49.550;11.940;2023-01-26T00:25:54;97333.81;;;-0.11;100.00
36598;BME280;22607;49.550;11.940;2023-01-26T00:28:20;97324.81;;;-0.05;100.00
36598;BME280;22607;49.550;11.940;2023-01-26T00:30:47;97329.38;;;-0.23;100.00
36598;BME280;22607;49.550;11.940;2023-01-26T00:33:13;97322.00;;;-0.15;100.00
36598;BME280;22607;49.550;11.940;2023-01-26T00:35:40;97320.03;;;-0.11;100.00
36598;BME280;22607;49.550;11.940;2023-01-26T00:38:11;97315.91;;;-0.14;100.00
36598;BME280;22607;49.550;11.940;2023-01-26T00:40:38;97307.13;;;-0.11;100.00
36598;BME280;22607;49.550;11.940;2023-01-26T00:43:05;97303.91;;;-0.01;100.00
36598;BME280;22607;49.550;11.940;2023-01-26T00:45:33;97301.31;;;-0.01;100.00
36598;BME280;22607;49.550;11.940;2023-01-26T00:47:59;97302.41;;;0.10;100.00
36598;BME280;22607;49.550;11.940;2023-01-26T00:50:25;97303.34;;;-0.06;100.00
36598;BME280;22607;49.550;11.940;2023-01-26T00:52:52;97297.66;;;-0.11;100.00
36598;BME280;22607;49.550;11.940;2023-01-26T00:55:19;97300.78;;;-0.20;100.00
36598;BME280;22607;49.550;11.940;2023-01-26T00:57:47;97305.41;;;-0.25;100.00
36598;BME280;22607;49.550;11.940;2023-01-26T01:00:15;97300.59;;;-0.17;100.00
36598;BME280;22607;49.550;11.940;2023-01-26T01:02:45;97290.00;;;-0.12;100.00
36598;BME280;22607;49.550;11.940;2023-01-26T01:05:11;97287.50;;;-0.14;100.00
36598;BME280;22607;49.550;11.940;2023-01-26T01:07:37;97285.28;;;-0.06;100.00
36598;BME280;22607;49.550;11.940;2023-01-26T01:10:04;97292.28;;;-0.22;100.00
36598;BME280;22607;49.550;11.940;2023-01-26T01:12:30;97287.88;;;-0.06;100.00
36598;BME280;22607;49.550;11.940;2023-01-26T01:14:57;97283.34;;;-0.17;100.00
36598;BME280;22607;49.550;11.940;2023-01-26T01:17:23;97283.25;;;-0.01;100.00
36598;BME280;22607;49.550;11.940;2023-01-26T01:19:50;97286.16;;;0.22;100.00
36598;BME280;22607;49.550;11.940;2023-01-26T01:22:16;97290.06;;;0.01;100.00
36598;BME280;22607;49.550;11.940;2023-01-26T01:24:43;97292.06;;;0.10;100.00
36598;BME280;22607;49.550;11.940;2023-01-26T01:27:09;97287.03;;;-0.06;100.00
36598;BME280;22607;49.550;11.940;2023-01-26T01:29:36;97289.53;;;-0.19;100.00
36598;BME280;22607;49.550;11.940;2023-01-26T01:32:03;97279.28;;;-0.06;100.00
36598;BME280;22607;49.550;11.940;2023-01-26T01:34:30;97284.38;;;-0.19;100.00
36598;BME280;22607;49.550;11.940;2023-01-26T01:36:56;97274.97;;;-0.35;100.00
36598;BME280;22607;49.550;11.940;2023-01-26T01:39:22;97274.44;;;-0.25;100.00
36598;BME280;22607;49.550;11.940;2023-01-26T01:41:49;97269.25;;;-0.40;100.00
36598;BME280;22607;49.550;11.940;2023-01-26T01:44:19;97262.97;;;-0.50;100.00
36598;BME280;22607;49.550;11.940;2023-01-26T01:46:56;97262.34;;;-0.40;100.00
36598;BME280;22607;49.550;11.940;2023-01-26T01:52:10;97267.97;;;-0.47;100.00
36598;BME280;22607;49.550;11.940;2023-01-26T01:54:45;97270.16;;;-0.41;100.00
36598;BME280;22607;49.550;11.940;2023-01-26T01:57:15;97262.50;;;-0.43;100.00
36598;BME280;22607;49.550;11.940;2023-01-26T01:59:44;97260.41;;;-0.50;100.00
36598;BME280;22607;49.550;11.940;2023-01-26T02:02:11;97249.25;;;-0.51;100.00
36598;BME280;22607;49.550;11.940;2023-01-26T02:04:39;97240.84;;;-0.40;100.00
36598;BME280;22607;49.550;11.940;2023-01-26T02:07:07;97248.25;;;-0.48;100.00
36598;BME280;22607;49.550;11.940;2023-01-26T02:09:36;97244.56;;;-0.44;100.00
36598;BME280;22607;49.550;11.940;2023-01-26T02:12:28;97245.66;;;-0.34;100.00
36598;BME280;22607;49.550;11.940;2023-01-26T02:14:55;97239.19;;;-0.41;100.00
36598;BME280;22607;49.550;11.940;2023-01-26T02:17:23;97244.91;;;-0.65;100.00
36598;BME280;22607;49.550;11.940;2023-01-26T02:22:19;97242.50;;;-0.24;100.00
36598;BME280;22607;49.550;11.940;2023-01-26T02:24:50;97244.53;;;-0.15;100.00
36598;BME280;22607;49.550;11.940;2023-01-26T02:27:18;97247.59;;;-0.23;100.00
36598;BME280;22607;49.550;11.940;2023-01-26T02:29:44;97236.59;;;-0.27;100.00
36598;BME280;22607;49.550;11.940;2023-01-26T02:32:11;97238.09;;;-0.37;100.00
36598;BME280;22607;49.550;11.940;2023-01-26T02:34:37;97226.09;;;-0.23;100.00
36598;BME280;22607;49.550;11.940;2023-01-26T02:37:03;97224.47;;;-0.39;100.00
36598;BME280;22607;49.550;11.940;2023-01-26T02:42:10;97226.47;;;-0.30;100.00
36598;BME280;22607;49.550;11.940;2023-01-26T02:44:55;97214.69;;;-0.34;100.00
36598;BME280;22607;49.550;11.940;2023-01-26T02:47:21;97209.13;;;-0.28;100.00
36598;BME280;22607;49.550;11.940;2023-01-26T02:49:48;97205.84;;;-0.30;100.00
36598;BME280;22607;49.550;11.940;2023-01-26T02:52:17;97218.28;;;-0.36;100.00
36598;BME280;22607;49.550;11.940;2023-01-26T02:54:44;97203.44;;;-0.33;100.00
36598;BME280;22607;49.550;11.940;2023-01-26T02:57:29;97217.81;;;-0.29;100.00
36598;BME280;22607;49.550;11.940;2023-01-26T02:59:56;97204.16;;;-0.31;100.00
36598;BME280;22607;49.550;11.940;2023-01-26T03:02:22;97208.94;;;-0.24;100.00
36598;BME280;22607;49.550;11.940;2023-01-26T03:04:48;97212.06;;;-0.19;100.00
36598;BME280;22607;49.550;11.940;2023-01-26T03:07:15;97215.31;;;-0.30;100.00
36598;BME280;22607;49.550;11.940;2023-01-26T03:09:41;97198.25;;;-0.18;100.00
36598;BME280;22607;49.550;11.940;2023-01-26T03:12:08;97203.13;;;-0.14;100.00
36598;BME280;22607;49.550;11.940;2023-01-26T03:14:38;97192.81;;;-0.28;100.00
36598;BME280;22607;49.550;11.940;2023-01-26T03:17:04;97193.88;;;-0.60;100.00
36598;BME280;22607;49.550;11.940;2023-01-26T03:19:32;97184.44;;;-0.32;100.00
36598;BME280;22607;49.550;11.940;2023-01-26T03:22:18;97187.38;;;-0.23;100.00
36598;BME280;22607;49.550;11.940;2023-01-26T03:25:03;97185.41;;;-0.20;100.00
36598;BME280;22607;49.550;11.940;2023-01-26T03:27:49;97182.94;;;-0.21;100.00
36598;BME280;22607;49.550;11.940;2023-01-26T03:30:17;97182.47;;;-0.28;100.00
36598;BME280;22607;49.550;11.940;2023-01-26T03:32:44;97180.59;;;-0.39;100.00
36598;BME280;22607;49.550;11.940;2023-01-26T03:35:11;97179.84;;;-0.41;100.00
36598;BME280;22607;49.550;11.940;2023-01-26T03:37:41;97185.34;;;-0.33;100.00
36598;BME280;22607;49.550;11.940;2023-01-26T03:40:10;97182.56;;;-0.15;100.00
36598;BME280;22607;49.550;11.940;2023-01-26T03:42:56;97188.22;;;-0.23;100.00
36598;BME280;22607;49.550;11.940;2023-01-26T03:45:41;97178.78;;;-0.24;100.00
36598;BME280;22607;49.550;11.940;2023-01-26T03:48:27;97182.34;;;-0.12;100.00
36598;BME280;22607;49.550;11.940;2023-01-26T03:51:12;97180.09;;;-0.31;100.00
36598;BME280;22607;49.550;11.940;2023-01-26T03:53:57;97182.53;;;-0.57;100.00
36598;BME280;22607;49.550;11.940;2023-01-26T03:56:42;97186.19;;;-0.47;100.00
36598;BME280;22607;49.550;11.940;2023-01-26T03:59:09;97186.59;;;-0.68;100.00
36598;BME280;22607;49.550;11.940;2023-01-26T04:01:44;97182.72;;;-0.46;100.00
36598;BME280;22607;49.550;11.940;2023-01-26T04:04:29;97175.88;;;-0.32;100.00
36598;BME280;22607;49.550;11.940;2023-01-26T04:07:16;97177.34;;;-0.43;100.00
36598;BME280;22607;49.550;11.940;2023-01-26T04:10:01;97181.84;;;-0.32;100.00
36598;BME280;22607;49.550;11.940;2023-01-26T04:12:31;97178.81;;;-0.38;100.00
36598;BME280;22607;49.550;11.940;2023-01-26T04:14:57;97181.50;;;-0.25;100.00
36598;BME280;22607;49.550;11.940;2023-01-26T04:17:44;97184.06;;;-0.25;100.00
36598;BME280;22607;49.550;11.940;2023-01-26T04:20:28;97177.41;;;-0.15;100.00
36598;BME280;22607;49.550;11.940;2023-01-26T04:23:17;97172.16;;;-0.28;100.00
36598;BME280;22607;49.550;11.940;2023-01-26T04:25:44;97176.97;;;-0.36;100.00
36598;BME280;22607;49.550;11.940;2023-01-26T04:28:10;97165.94;;;-0.53;100.00
36598;BME280;22607;49.550;11.940;2023-01-26T04:30:40;97167.88;;;-0.42;100.00
36598;BME280;22607;49.550;11.940;2023-01-26T04:33:06;97174.72;;;-0.70;100.00
36598;BME280;22607;49.550;11.940;2023-01-26T04:35:33;97175.16;;;-0.49;100.00
36598;BME280;22607;49.550;11.940;2023-01-26T04:38:00;97171.41;;;-0.58;100.00
36598;BME280;22607;49.550;11.940;2023-01-26T04:40:26;97172.94;;;-0.41;100.00
36598;BME280;22607;49.550;11.940;2023-01-26T04:42:53;97161.22;;;-0.46;100.00
36598;BME280;22607;49.550;11.940;2023-01-26T04:45:19;97165.09;;;-0.39;100.00
36598;BME280;22607;49.550;11.940;2023-01-26T04:47:47;97162.66;;;-0.28;100.00
36598;BME280;22607;49.550;11.940;2023-01-26T04:50:14;97161.16;;;-0.17;100.00
36598;BME280;22607;49.550;11.940;2023-01-26T04:52:41;97158.66;;;-0.19;100.00
36598;BME280;22607;49.550;11.940;2023-01-26T04:55:07;97158.22;;;-0.11;100.00
36598;BME280;22607;49.550;11.940;2023-01-26T04:57:34;97160.78;;;-0.11;100.00
36598;BME280;22607;49.550;11.940;2023-01-26T05:00:00;97154.75;;;-0.24;100.00
36598;BME280;22607;49.550;11.940;2023-01-26T05:02:26;97153.72;;;-0.22;100.00
36598;BME280;22607;49.550;11.940;2023-01-26T05:04:53;97160.53;;;-0.21;100.00
36598;BME280;22607;49.550;11.940;2023-01-26T05:07:19;97150.59;;;-0.27;100.00
36598;BME280;22607;49.550;11.940;2023-01-26T05:09:46;97153.41;;;-0.17;100.00
36598;BME280;22607;49.550;11.940;2023-01-26T05:12:12;97147.22;;;-0.15;100.00
36598;BME280;22607;49.550;11.940;2023-01-26T05:15:00;97150.75;;;-0.16;100.00
36598;BME280;22607;49.550;11.940;2023-01-26T05:17:26;97149.53;;;-0.10;100.00
36598;BME280;22607;49.550;11.940;2023-01-26T05:19:53;97157.47;;;-0.13;100.00
36598;BME280;22607;49.550;11.940;2023-01-26T05:22:19;97159.06;;;-0.25;100.00
36598;BME280;22607;49.550;11.940;2023-01-26T05:24:46;97158.91;;;-0.36;100.00
36598;BME280;22607;49.550;11.940;2023-01-26T05:27:12;97156.59;;;-0.41;100.00
36598;BME280;22607;49.550;11.940;2023-01-26T05:29:48;97154.47;;;-0.34;100.00
36598;BME280;22607;49.550;11.940;2023-01-26T05:32:15;97155.81;;;-0.42;100.00
36598;BME280;22607;49.550;11.940;2023-01-26T05:34:41;97158.00;;;-0.50;100.00
36598;BME280;22607;49.550;11.940;2023-01-26T05:37:07;97161.00;;;-0.29;100.00
36598;BME280;22607;49.550;11.940;2023-01-26T05:39:34;97169.69;;;-0.30;100.00
36598;BME280;22607;49.550;11.940;2023-01-26T05:42:00;97164.25;;;-0.40;100.00
36598;BME280;22607;49.550;11.940;2023-01-26T05:44:26;97166.78;;;-0.52;100.00
36598;BME280;22607;49.550;11.940;2023-01-26T05:46:54;97165.38;;;-0.44;100.00
36598;BME280;22607;49.550;11.940;2023-01-26T05:49:21;97162.03;;;-0.31;100.00
36598;BME280;22607;49.550;11.940;2023-01-26T05:51:48;97164.88;;;-0.36;100.00
36598;BME280;22607;49.550;11.940;2023-01-26T05:54:14;97161.84;;;-0.43;100.00
36598;BME280;22607;49.550;11.940;2023-01-26T05:56:41;97166.59;;;-0.64;100.00
36598;BME280;22607;49.550;11.940;2023-01-26T05:59:07;97157.56;;;-0.57;100.00
36598;BME280;22607;49.550;11.940;2023-01-26T06:01:33;97160.78;;;-0.68;100.00
36598;BME280;22607;49.550;11.940;2023-01-26T06:04:00;97153.88;;;-0.52;100.00
36598;BME280;22607;49.550;11.940;2023-01-26T06:06:26;97163.53;;;-0.42;100.00
36598;BME280;22607;49.550;11.940;2023-01-26T06:08:53;97168.72;;;-0.85;100.00
36598;BME280;22607;49.550;11.940;2023-01-26T06:11:19;97166.25;;;-0.58;100.00
36598;BME280;22607;49.550;11.940;2023-01-26T06:13:51;97164.44;;;-0.43;100.00
36598;BME280;22607;49.550;11.940;2023-01-26T06:16:18;97166.25;;;-0.58;100.00
36598;BME280;22607;49.550;11.940;2023-01-26T06:18:46;97165.09;;;-0.39;100.00
36598;BME280;22607;49.550;11.940;2023-01-26T06:21:12;97163.06;;;-0.34;100.00
36598;BME280;22607;49.550;11.940;2023-01-26T06:23:39;97164.88;;;-0.36;100.00
36598;BME280;22607;49.550;11.940;2023-01-26T06:26:05;97158.25;;;-0.25;100.00
36598;BME280;22607;49.550;11.940;2023-01-26T06:28:35;97160.44;;;-0.19;100.00
36598;BME280;22607;49.550;11.940;2023-01-26T06:31:04;97151.56;;;-0.15;100.00
36598;BME280;22607;49.550;11.940;2023-01-26T06:33:32;97154.16;;;-0.15;100.00
36598;BME280;22607;49.550;11.940;2023-01-26T06:36:02;97159.69;;;-0.07;100.00
36598;BME280;22607;49.550;11.940;2023-01-26T06:38:29;97157.50;;;-0.28;100.00
36598;BME280;22607;49.550;11.940;2023-01-26T06:40:59;97162.97;;;-0.47;100.00
36598;BME280;22607;49.550;11.940;2023-01-26T06:43:29;97157.91;;;-0.34;100.00
36598;BME280;22607;49.550;11.940;2023-01-26T06:45:58;97154.78;;;-0.39;100.00
36598;BME280;22607;49.550;11.940;2023-01-26T06:48:25;97159.00;;;-0.38;100.00
36598;BME280;22607;49.550;11.940;2023-01-26T06:53:37;97154.69;;;-0.10;100.00
36598;BME280;22607;49.550;11.940;2023-01-26T06:56:05;97156.31;;;-0.22;100.00
36598;BME280;22607;49.550;11.940;2023-01-26T06:58:31;97159.31;;;-0.15;100.00
36598;BME280;22607;49.550;11.940;2023-01-26T07:00:58;97160.44;;;-0.19;100.00
36598;BME280;22607;49.550;11.940;2023-01-26T07:03:25;97164.00;;;-0.35;100.00
36598;BME280;22607;49.550;11.940;2023-01-26T07:05:51;97160.25;;;-0.16;100.00
36598;BME280;22607;49.550;11.940;2023-01-26T07:08:17;97162.63;;;-0.13;100.00
36598;BME280;22607;49.550;11.940;2023-01-26T07:10:44;97162.19;;;-0.20;100.00
36598;BME280;22607;49.550;11.940;2023-01-26T07:13:10;97164.13;;;-0.23;100.00
36598;BME280;22607;49.550;11.940;2023-01-26T07:15:40;97157.38;;;-0.11;100.00
36598;BME280;22607;49.550;11.940;2023-01-26T07:18:07;97162.78;;;-0.02;100.00
36598;BME280;22607;49.550;11.940;2023-01-26T07:20:33;97161.06;;;-0.16;100.00
36598;BME280;22607;49.550;11.940;2023-01-26T07:23:02;97160.31;;;-0.03;100.00
36598;BME280;22607;49.550;11.940;2023-01-26T07:25:29;97153.41;;;-0.17;100.00
36598;BME280;22607;49.550;11.940;2023-01-26T07:27:56;97150.91;;;-0.19;100.00
36598;BME280;22607;49.550;11.940;2023-01-26T07:30:22;97153.94;;;-0.12;100.00
36598;BME280;22607;49.550;11.940;2023-01-26T07:32:50;97159.22;;;-0.14;100.00
36598;BME280;22607;49.550;11.940;2023-01-26T07:35:16;97155.50;;;-0.09;100.00
36598;BME280;22607;49.550;11.940;2023-01-26T07:37:43;97154.06;;;-0.14;100.00
36598;BME280;22607;49.550;11.940;2023-01-26T07:40:09;97157.56;;;-0.15;100.00
36598;BME280;22607;49.550;11.940;2023-01-26T07:42:37;97157.81;;;-0.05;100.00
36598;BME280;22607;49.550;11.940;2023-01-26T07:45:03;97159.47;;;-0.04;100.00
36598;BME280;22607;49.550;11.940;2023-01-26T07:47:30;97152.03;;;-0.08;100.00
36598;BME280;22607;49.550;11.940;2023-01-26T07:49:56;97163.13;;;-0.21;100.00
36598;BME280;22607;49.550;11.940;2023-01-26T07:52:22;97161.91;;;-0.15;100.00
36598;BME280;22607;49.550;11.940;2023-01-26T07:54:51;97154.06;;;-0.14;100.00
36598;BME280;22607;49.550;11.940;2023-01-26T07:57:17;97155.19;;;-0.18;100.00
36598;BME280;22607;49.550;11.940;2023-01-26T07:59:43;97149.72;;;-0.13;100.00
36598;BME280;22607;49.550;11.940;2023-01-26T08:02:10;97155.84;;;-0.29;100.00
36598;BME280;22607;49.550;11.940;2023-01-26T08:07:05;97152.97;;;-0.24;100.00
36598;BME280;22607;49.550;11.940;2023-01-26T08:09:32;97159.28;;;-0.43;100.00
36598;BME280;22607;49.550;11.940;2023-01-26T08:12:00;97153.63;;;-0.20;100.00
36598;BME280;22607;49.550;11.940;2023-01-26T08:14:27;97158.38;;;-0.14;100.00
36598;BME280;22607;49.550;11.940;2023-01-26T08:17:11;97165.41;;;-0.16;100.00
36598;BME280;22607;49.550;11.940;2023-01-26T08:19:37;97159.22;;;-0.14;100.00
36598;BME280;22607;49.550;11.940;2023-01-26T08:22:03;97165.47;;;-0.03;100.00
36598;BME280;22607;49.550;11.940;2023-01-26T08:24:30;97162.25;;;-0.07;100.00
36598;BME280;22607;49.550;11.940;2023-01-26T08:26:56;97167.03;;;-0.01;100.00
36598;BME280;22607;49.550;11.940;2023-01-26T08:29:22;97163.31;;;0.04;100.00
36598;BME280;22607;49.550;11.940;2023-01-26T08:31:49;97166.50;;;-0.06;100.00
36598;BME280;22607;49.550;11.940;2023-01-26T08:34:15;97161.38;;;-0.20;100.00
36598;BME280;22607;49.550;11.940;2023-01-26T08:36:42;97165.22;;;-0.13;100.00
36598;BME280;22607;49.550;11.940;2023-01-26T08:39:08;97154.09;;;-0.01;100.00
36598;BME280;22607;49.550;11.940;2023-01-26T08:41:35;97153.19;;;0.01;100.00
36598;BME280;22607;49.550;11.940;2023-01-26T08:44:01;97150.75;;;-0.16;100.00
36598;BME280;22607;49.550;11.940;2023-01-26T08:46:28;97146.75;;;-0.07;100.00
36598;BME280;22607;49.550;11.940;2023-01-26T08:49:00;97154.28;;;-0.04;100.00
36598;BME280;22607;49.550;11.940;2023-01-26T08:51:26;97151.56;;;-0.15;100.00
36598;BME280;22607;49.550;11.940;2023-01-26T08:53:53;97151.28;;;0.17;100.00
36598;BME280;22607;49.550;11.940;2023-01-26T08:56:26;97148.59;;;0.19;100.00
36598;BME280;22607;49.550;11.940;2023-01-26T08:58:52;97141.75;;;-0.37;100.00
36598;BME280;22607;49.550;11.940;2023-01-26T09:01:22;97134.09;;;-0.24;100.00
36598;BME280;22607;49.550;11.940;2023-01-26T09:03:49;97127.50;;;-0.16;100.00
36598;BME280;22607;49.550;11.940;2023-01-26T09:06:18;97130.84;;;-0.14;100.00
36598;BME280;22607;49.550;11.940;2023-01-26T09:08:44;97134.44;;;-0.16;100.00
36598;BME280;22607;49.550;11.940;2023-01-26T09:11:11;97131.41;;;0.05;100.00
36598;BME280;22607;49.550;11.940;2023-01-26T09:13:38;97137.50;;;0.04;100.00
36598;BME280;22607;49.550;11.940;2023-01-26T09:16:05;97136.31;;;-0.05;100.00
36598;BME280;22607;49.550;11.940;2023-01-26T09:18:32;97132.50;;;0.01;100.00
36598;BME280;22607;49.550;11.940;2023-01-26T09:21:03;97129.13;;;0.00;100.00
36598;BME280;22607;49.550;11.940;2023-01-26T09:23:32;97135.16;;;-0.14;100.00
36598;BME280;22607;49.550;11.940;2023-01-26T09:25:59;97130.03;;;-0.29;100.00
36598;BME280;22607;49.550;11.940;2023-01-26T09:28:25;97135.63;;;0.06;100.00
36598;BME280;22607;49.550;11.940;2023-01-26T09:30:52;97125.69;;;-0.01;100.00
36598;BME280;22607;49.550;11.940;2023-01-26T09:33:27;97136.16;;;0.11;100.00
36598;BME280;22607;49.550;11.940;2023-01-26T09:35:54;97139.53;;;-0.02;100.00
36598;BME280;22607;49.550;11.940;2023-01-26T09:38:22;97134.03;;;-0.10;100.00
36598;BME280;22607;49.550;11.940;2023-01-26T09:43:30;97130.34;;;-0.06;100.00
36598;BME280;22607;49.550;11.940;2023-01-26T09:48:48;97136.13;;;-0.02;100.00
36598;BME280;22607;49.550;11.940;2023-01-26T09:51:19;97133.25;;;0.03;100.00
36598;BME280;22607;49.550;11.940;2023-01-26T09:53:52;97136.56;;;0.05;100.00
36598;BME280;22607;49.550;11.940;2023-01-26T09:56:20;97130.81;;;0.14;100.00
36598;BME280;22607;49.550;11.940;2023-01-26T09:58:57;97137.63;;;0.15;100.00
36598;BME280;22607;49.550;11.940;2023-01-26T10:01:38;97136.91;;;0.13;100.00
36598;BME280;22607;49.550;11.940;2023-01-26T10:06:33;97136.16;;;0.11;100.00
36598;BME280;22607;49.550;11.940;2023-01-26T10:09:05;97136.88;;;0.00;100.00
36598;BME280;22607;49.550;11.940;2023-01-26T10:11:38;97139.06;;;0.06;100.00
36598;BME280;22607;49.550;11.940;2023-01-26T10:14:09;97137.44;;;0.18;100.00
36598;BME280;22607;49.550;11.940;2023-01-26T10:16:37;97142.84;;;0.28;100.00
36598;BME280;22607;49.550;11.940;2023-01-26T10:21:32;97131.09;;;-0.18;100.00
36598;BME280;22607;49.550;11.940;2023-01-26T10:24:01;97132.44;;;0.02;100.00
36598;BME280;22607;49.550;11.940;2023-01-26T10:26:32;97137.00;;;0.11;100.00
36598;BME280;22607;49.550;11.940;2023-01-26T10:29:01;97127.13;;;0.31;100.00
36598;BME280;22607;49.550;11.940;2023-01-26T10:31:29;97125.28;;;0.06;100.00
36598;BME280;22607;49.550;11.940;2023-01-26T10:34:00;97125.59;;;0.01;100.00
36598;BME280;22607;49.550;11.940;2023-01-26T10:36:29;97128.28;;;-0.01;100.00
36598;BME280;22607;49.550;11.940;2023-01-26T10:39:01;97124.59;;;0.17;100.00
36598;BME280;22607;49.550;11.940;2023-01-26T10:41:28;97121.53;;;0.24;100.00
36598;BME280;22607;49.550;11.940;2023-01-26T10:43:56;97119.19;;;0.07;100.00
36598;BME280;22607;49.550;11.940;2023-01-26T10:46:28;97114.78;;;0.09;100.00
36598;BME280;22607;49.550;11.940;2023-01-26T10:48:56;97117.34;;;0.09;100.00
36598;BME280;22607;49.550;11.940;2023-01-26T10:51:25;97111.88;;;0.13;100.00
36598;BME280;22607;49.550;11.940;2023-01-26T10:54:10;97115.81;;;0.06;100.00
36598;BME280;22607;49.550;11.940;2023-01-26T10:56:57;97114.00;;;0.21;100.00
36598;BME280;22607;49.550;11.940;2023-01-26T10:59:26;97110.06;;;-0.12;100.00
36598;BME280;22607;49.550;11.940;2023-01-26T11:04:24;97112.38;;;0.06;100.00
36598;BME280;22607;49.550;11.940;2023-01-26T11:06:53;97111.59;;;0.18;100.00
36598;BME280;22607;49.550;11.940;2023-01-26T11:09:23;97106.84;;;0.12;100.00
36598;BME280;22607;49.550;11.940;2023-01-26T11:11:57;97108.16;;;0.05;100.00
36598;BME280;22607;49.550;11.940;2023-01-26T11:14:24;97113.25;;;0.19;100.00
36598;BME280;22607;49.550;11.940;2023-01-26T11:17:37;97117.28;;;0.23;100.00
36598;BME280;22607;49.550;11.940;2023-01-26T11:22:21;97111.88;;;0.13;100.00
36598;BME280;22607;49.550;11.940;2023-01-26T11:27:32;97101.44;;;0.02;100.00
36598;BME280;22607;49.550;11.940;2023-01-26T11:35:21;97090.47;;;-0.02;100.00
36598;BME280;22607;49.550;11.940;2023-01-26T11:51:23;97079.22;;;0.12;100.00
36598;BME280;22607;49.550;11.940;2023-01-26T11:56:29;97070.25;;;0.18;100.00
36598;BME280;22607;49.550;11.940;2023-01-26T11:59:02;97077.41;;;0.28;100.00
36598;BME280;22607;49.550;11.940;2023-01-26T12:01:38;97064.72;;;0.37;100.00
36598;BME280;22607;49.550;11.940;2023-01-26T12:04:05;97066.75;;;0.19;100.00
36598;BME280;22607;49.550;11.940;2023-01-26T12:06:36;97061.28;;;0.37;100.00
36598;BME280;22607;49.550;11.940;2023-01-26T12:09:04;97060.53;;;0.35;100.00
36598;BME280;22607;49.550;11.940;2023-01-26T12:11:39;97060.72;;;0.06;100.00
36598;BME280;22607;49.550;11.940;2023-01-26T12:14:13;97053.53;;;0.24;100.00
36598;BME280;22607;49.550;11.940;2023-01-26T12:21:38;97045.03;;;0.22;100.00
36598;BME280;22607;49.550;11.940;2023-01-26T12:24:08;97037.91;;;0.25;100.00
36598;BME280;22607;49.550;11.940;2023-01-26T12:26:56;97033.91;;;0.34;100.00
36598;BME280;22607;49.550;11.940;2023-01-26T12:29:24;97029.53;;;0.22;100.00
36598;BME280;22607;49.550;11.940;2023-01-26T12:31:58;97030.72;;;0.31;100.00
36598;BME280;22607;49.550;11.940;2023-01-26T12:34:26;97025.13;;;0.37;100.00
36598;BME280;22607;49.550;11.940;2023-01-26T12:37:20;97028.22;;;0.42;100.00
36598;BME280;22607;49.550;11.940;2023-01-26T12:39:43;97028.13;;;0.31;100.00
36598;BME280;22607;49.550;11.940;2023-01-26T12:42:18;97034.09;;;0.31;100.00
36598;BME280;22607;49.550;11.940;2023-01-26T12:44:57;97026.97;;;0.22;100.00
36598;BME280;22607;49.550;11.940;2023-01-26T12:47:37;97020.03;;;0.35;100.00
36598;BME280;22607;49.550;11.940;2023-01-26T12:55:17;97015.28;;;0.16;100.00
36598;BME280;22607;49.550;11.940;2023-01-26T12:57:47;97011.47;;;0.22;100.00
36598;BME280;22607;49.550;11.940;2023-01-26T13:00:19;97012.38;;;0.34;100.00
36598;BME280;22607;49.550;11.940;2023-01-26T13:02:48;97011.38;;;0.23;100.00
36598;BME280;22607;49.550;11.940;2023-01-26T13:05:26;97012.81;;;0.28;100.00
36598;BME280;22607;49.550;11.940;2023-01-26T13:07:53;97005.06;;;0.28;100.00
36598;BME280;22607;49.550;11.940;2023-01-26T13:10:26;97002.06;;;0.34;100.00
36598;BME280;22607;49.550;11.940;2023-01-26T13:12:59;96997.19;;;0.42;100.00
36598;BME280;22607;49.550;11.940;2023-01-26T13:15:28;96989.44;;;0.42;100.00
36598;BME280;22607;49.550;11.940;2023-01-26T13:22:49;97002.06;;;0.34;100.00
36598;BME280;22607;49.550;11.940;2023-01-26T13:25:32;97000.31;;;0.21;100.00
36598;BME280;22607;49.550;11.940;2023-01-26T13:28:00;96994.72;;;0.28;100.00
36598;BME280;22607;49.550;11.940;2023-01-26T13:33:01;96994.94;;;0.24;100.00
36598;BME280;22607;49.550;11.940;2023-01-26T13:35:29;97000.59;;;0.30;100.00
36598;BME280;22607;49.550;11.940;2023-01-26T13:37:58;97002.38;;;0.42;100.00
36598;BME280;22607;49.550;11.940;2023-01-26T13:40:34;96990.78;;;0.22;100.00
36598;BME280;22607;49.550;11.940;2023-01-26T13:43:10;96994.94;;;0.24;100.00
36598;BME280;22607;49.550;11.940;2023-01-26T13:48:44;96997.94;;;0.18;100.00
36598;BME280;22607;49.550;11.940;2023-01-26T13:51:16;96993.38;;;0.09;100.00
36598;BME280;22607;49.550;11.940;2023-01-26T13:53:53;96987.41;;;0.21;100.00
36598;BME280;22607;49.550;11.940;2023-01-26T13:56:23;96983.56;;;0.27;100.00
36598;BME280;22607;49.550;11.940;2023-01-26T13:58:50;96993.38;;;0.22;100.00
36598;BME280;22607;49.550;11.940;2023-01-26T14:01:17;96994.41;;;0.19;100.00
36598;BME280;22607;49.550;11.940;2023-01-26T14:03:44;96987.81;;;0.28;100.00
36598;BME280;22607;49.550;11.940;2023-01-26T14:06:17;96998.72;;;-0.20;100.00
36598;BME280;22607;49.550;11.940;2023-01-26T14:08:48;96986.34;;;-0.02;100.00